ADDS METAR Data INFO
IDs: Format: Raw Decoded Include TAF

Data at: 0312 UTC 17 Jan 2018

METAR for:TUPJ (Beef Isl/Lettsome In, --, WI)
Text:TUPJ 162200Z 09007KT 9999 SCT018 27/22 Q1016 RMK A3001
Temperature: 27.0°C ( 81°F)
Dewpoint: 22.0°C ( 72°F) [RH = 74%]
Pressure (altimeter):30.00 inches Hg (1016.0 mb)
Winds:from the E (90 degrees) at 8 MPH (7 knots; 3.6 m/s)
Visibility:6 or more sm (10+ km)
Ceiling:at least 12,000 feet AGL
Clouds: scattered clouds at 1800 feet AGL